MMD1919 EKSB-EKCH
Flight info
| Callsign | MMD1919 |
|---|---|
| Flight time | 0h 32m |
| Altitude | 21000 |
| Route | TALSA P729 TUDLO |
| Aircraft | PC12/L-SDFGRWY/S |
Departure
| Time | 2026-04-25 18:18 |
|---|---|
| Airport | Sønderborg Airport (EKSB) |
Arrival
| Time | 2026-04-25 18:50 |
|---|---|
| Airport | Copenhagen Kastrup Airport (EKCH) |
| Time | Latitude | Longitude | Altitude | Speed | Heading |
|---|---|---|---|---|---|
| 2026-04-25 17:58 | 54.96296 | 9.78714 | 26 ft | 0 kts | 141° |
| 2026-04-25 18:14 | 54.96297 | 9.78737 | 27 ft | 10 kts | 31° |
| 2026-04-25 18:15 | 54.96381 | 9.78828 | 26 ft | 15 kts | 54° |
| 2026-04-25 18:15 | 54.96434 | 9.78939 | 26 ft | 8 kts | 49° |
| 2026-04-25 18:15 | 54.96443 | 9.78958 | 26 ft | 0 kts | 49° |
| 2026-04-25 18:15 | 54.96449 | 9.78970 | 28 ft | 6 kts | 49° |
| 2026-04-25 18:16 | 54.96500 | 9.79084 | 28 ft | 15 kts | 81° |
| 2026-04-25 18:16 | 54.96391 | 9.79236 | 28 ft | 28 kts | 147° |
| 2026-04-25 18:16 | 54.96121 | 9.79649 | 28 ft | 20 kts | 134° |
| 2026-04-25 18:17 | 54.96094 | 9.79876 | 29 ft | 20 kts | 146° |
| 2026-04-25 18:17 | 54.96028 | 9.79829 | 30 ft | 8 kts | 231° |
| 2026-04-25 18:17 | 54.96038 | 9.79763 | 29 ft | 0 kts | 321° |
| 2026-04-25 18:17 | 54.96192 | 9.79539 | 29 ft | 62 kts | 315° |
| 2026-04-25 18:18 | 54.96630 | 9.78965 | 208 ft | 95 kts | 319° |
| 2026-04-25 18:18 | 54.97262 | 9.78195 | 530 ft | 122 kts | 321° |
| 2026-04-25 18:18 | 54.98135 | 9.77972 | 1149 ft | 132 kts | 351° |
| 2026-04-25 18:18 | 54.99040 | 9.77603 | 1800 ft | 137 kts | 336° |
| 2026-04-25 18:19 | 54.99915 | 9.76989 | 2450 ft | 132 kts | 335° |
| 2026-04-25 18:19 | 55.00738 | 9.76375 | 3090 ft | 126 kts | 336° |
| 2026-04-25 18:19 | 55.01536 | 9.75762 | 3729 ft | 126 kts | 336° |
| 2026-04-25 18:19 | 55.02379 | 9.75339 | 4369 ft | 132 kts | 2° |
| 2026-04-25 18:20 | 55.03241 | 9.76046 | 5022 ft | 147 kts | 31° |
| 2026-04-25 18:20 | 55.03795 | 9.77731 | 5669 ft | 173 kts | 57° |
| 2026-04-25 18:20 | 55.04219 | 9.79753 | 6339 ft | 182 kts | 56° |
| 2026-04-25 18:20 | 55.04673 | 9.81813 | 6961 ft | 189 kts | 56° |
| 2026-04-25 18:21 | 55.05162 | 9.83985 | 7598 ft | 196 kts | 54° |
| 2026-04-25 18:21 | 55.05668 | 9.86225 | 8246 ft | 201 kts | 54° |
| 2026-04-25 18:21 | 55.06187 | 9.88530 | 8900 ft | 206 kts | 54° |
| 2026-04-25 18:21 | 55.06718 | 9.90887 | 9610 ft | 211 kts | 53° |
| 2026-04-25 18:22 | 55.07260 | 9.93295 | 10247 ft | 216 kts | 53° |
| 2026-04-25 18:22 | 55.07445 | 9.94126 | 10454 ft | 218 kts | 53° |
| 2026-04-25 18:22 | 55.08135 | 9.98532 | 11487 ft | 233 kts | 63° |
| 2026-04-25 18:22 | 55.08455 | 10.01319 | 12123 ft | 235 kts | 62° |
| 2026-04-25 18:23 | 55.08795 | 10.04088 | 12770 ft | 230 kts | 59° |
| 2026-04-25 18:23 | 55.09141 | 10.06791 | 13399 ft | 227 kts | 57° |
| 2026-04-25 18:23 | 55.09495 | 10.09493 | 14011 ft | 230 kts | 57° |
| 2026-04-25 18:23 | 55.09848 | 10.12244 | 14591 ft | 234 kts | 57° |
| 2026-04-25 18:24 | 55.10200 | 10.15037 | 15242 ft | 236 kts | 56° |
| 2026-04-25 18:24 | 55.10552 | 10.17848 | 15865 ft | 238 kts | 56° |
| 2026-04-25 18:24 | 55.10909 | 10.20675 | 16493 ft | 239 kts | 56° |
| 2026-04-25 18:24 | 55.11267 | 10.23519 | 17143 ft | 240 kts | 55° |
| 2026-04-25 18:25 | 55.11626 | 10.26373 | 17807 ft | 241 kts | 55° |
| 2026-04-25 18:25 | 55.11983 | 10.29231 | 18450 ft | 241 kts | 54° |
| 2026-04-25 18:25 | 55.12341 | 10.32089 | 19010 ft | 241 kts | 54° |
| 2026-04-25 18:25 | 55.12696 | 10.34940 | 19583 ft | 241 kts | 54° |
| 2026-04-25 18:26 | 55.13053 | 10.37800 | 20159 ft | 241 kts | 53° |
| 2026-04-25 18:26 | 55.13410 | 10.40660 | 20729 ft | 242 kts | 53° |
| 2026-04-25 18:26 | 55.13788 | 10.43594 | 21009 ft | 257 kts | 54° |
| 2026-04-25 18:26 | 55.14198 | 10.46765 | 21009 ft | 274 kts | 57° |
| 2026-04-25 18:27 | 55.14598 | 10.50112 | 21007 ft | 290 kts | 58° |
| 2026-04-25 18:27 | 55.15024 | 10.53634 | 21009 ft | 301 kts | 59° |
| 2026-04-25 18:27 | 55.15465 | 10.57259 | 21007 ft | 307 kts | 59° |
| 2026-04-25 18:27 | 55.15911 | 10.60933 | 20996 ft | 311 kts | 59° |
| 2026-04-25 18:28 | 55.16363 | 10.64641 | 20994 ft | 313 kts | 59° |
| 2026-04-25 18:28 | 55.16810 | 10.68317 | 20996 ft | 314 kts | 59° |
| 2026-04-25 18:28 | 55.17264 | 10.72049 | 20996 ft | 314 kts | 59° |
| 2026-04-25 18:29 | 55.18169 | 10.79527 | 20998 ft | 314 kts | 60° |
| 2026-04-25 18:29 | 55.18619 | 10.83266 | 20992 ft | 314 kts | 60° |
| 2026-04-25 18:30 | 55.19973 | 10.94530 | 20632 ft | 316 kts | 60° |
| 2026-04-25 18:30 | 55.20265 | 10.97018 | 20497 ft | 314 kts | 60° |
| 2026-04-25 18:30 | 55.20715 | 11.00801 | 20294 ft | 313 kts | 60° |
| 2026-04-25 18:30 | 55.21160 | 11.04517 | 20104 ft | 312 kts | 60° |
| 2026-04-25 18:31 | 55.21600 | 11.08208 | 19966 ft | 315 kts | 59° |
| 2026-04-25 18:31 | 55.22056 | 11.12043 | 19768 ft | 319 kts | 60° |
| 2026-04-25 18:31 | 55.22501 | 11.15854 | 19575 ft | 320 kts | 60° |
| 2026-04-25 18:31 | 55.22940 | 11.19625 | 19386 ft | 320 kts | 60° |
| 2026-04-25 18:32 | 55.23386 | 11.23437 | 19190 ft | 320 kts | 60° |
| 2026-04-25 18:32 | 55.23832 | 11.27252 | 19003 ft | 319 kts | 60° |
| 2026-04-25 18:32 | 55.24276 | 11.31064 | 18805 ft | 319 kts | 60° |
| 2026-04-25 18:32 | 55.24720 | 11.34878 | 18619 ft | 320 kts | 61° |
| 2026-04-25 18:33 | 55.25164 | 11.38713 | 18432 ft | 321 kts | 61° |
| 2026-04-25 18:33 | 55.25603 | 11.42543 | 18304 ft | 320 kts | 60° |
| 2026-04-25 18:33 | 55.26028 | 11.46245 | 18104 ft | 319 kts | 61° |
| 2026-04-25 18:33 | 55.26465 | 11.50049 | 17885 ft | 318 kts | 61° |
| 2026-04-25 18:34 | 55.26899 | 11.53838 | 17666 ft | 317 kts | 61° |
| 2026-04-25 18:34 | 55.27331 | 11.57622 | 17445 ft | 317 kts | 61° |
| 2026-04-25 18:34 | 55.27765 | 11.61414 | 17209 ft | 318 kts | 62° |
| 2026-04-25 18:34 | 55.28201 | 11.65245 | 16893 ft | 321 kts | 62° |
| 2026-04-25 18:35 | 55.28632 | 11.69088 | 16655 ft | 322 kts | 63° |
| 2026-04-25 18:35 | 55.29062 | 11.72934 | 16341 ft | 320 kts | 63° |
| 2026-04-25 18:35 | 55.29486 | 11.76739 | 16029 ft | 313 kts | 63° |
| 2026-04-25 18:35 | 55.29893 | 11.80423 | 15705 ft | 304 kts | 63° |
| 2026-04-25 18:36 | 55.30300 | 11.84027 | 15391 ft | 299 kts | 63° |
| 2026-04-25 18:36 | 55.30703 | 11.87590 | 15086 ft | 296 kts | 64° |
| 2026-04-25 18:36 | 55.31094 | 11.91118 | 14882 ft | 292 kts | 64° |
| 2026-04-25 18:36 | 55.31485 | 11.94632 | 14592 ft | 296 kts | 64° |
| 2026-04-25 18:37 | 55.31880 | 11.98174 | 14214 ft | 294 kts | 65° |
| 2026-04-25 18:37 | 55.32256 | 12.01664 | 13824 ft | 289 kts | 65° |
| 2026-04-25 18:37 | 55.32633 | 12.05101 | 13417 ft | 285 kts | 66° |
| 2026-04-25 18:37 | 55.33003 | 12.08452 | 13040 ft | 282 kts | 66° |
| 2026-04-25 18:38 | 55.33378 | 12.11868 | 12660 ft | 280 kts | 67° |
| 2026-04-25 18:38 | 55.33737 | 12.15165 | 12299 ft | 278 kts | 67° |
| 2026-04-25 18:38 | 55.34098 | 12.18492 | 11934 ft | 276 kts | 68° |
| 2026-04-25 18:38 | 55.34455 | 12.21788 | 11571 ft | 274 kts | 68° |
| 2026-04-25 18:39 | 55.34810 | 12.25071 | 11221 ft | 272 kts | 69° |
| 2026-04-25 18:39 | 55.35162 | 12.28335 | 10847 ft | 272 kts | 70° |
| 2026-04-25 18:39 | 55.35512 | 12.31590 | 10485 ft | 270 kts | 70° |
| 2026-04-25 18:39 | 55.35859 | 12.34823 | 10127 ft | 268 kts | 71° |
| 2026-04-25 18:40 | 55.36202 | 12.38036 | 9771 ft | 266 kts | 71° |
| 2026-04-25 18:40 | 55.36541 | 12.41223 | 9398 ft | 264 kts | 71° |
| 2026-04-25 18:40 | 55.36875 | 12.44367 | 9048 ft | 261 kts | 71° |
| 2026-04-25 18:40 | 55.37207 | 12.47483 | 8709 ft | 258 kts | 71° |
| 2026-04-25 18:41 | 55.37532 | 12.50559 | 8351 ft | 255 kts | 71° |
| 2026-04-25 18:41 | 55.37854 | 12.53605 | 8019 ft | 253 kts | 71° |
| 2026-04-25 18:41 | 55.38170 | 12.56610 | 7684 ft | 250 kts | 70° |
| 2026-04-25 18:41 | 55.38489 | 12.59603 | 7353 ft | 246 kts | 69° |
| 2026-04-25 18:42 | 55.39168 | 12.62229 | 7035 ft | 231 kts | 48° |
| 2026-04-25 18:42 | 55.39753 | 12.63754 | 6845 ft | 228 kts | 46° |
| 2026-04-25 18:42 | 55.40976 | 12.66774 | 6473 ft | 225 kts | 45° |
| 2026-04-25 18:42 | 55.41883 | 12.69006 | 6200 ft | 224 kts | 45° |
| 2026-04-25 18:43 | 55.42780 | 12.71215 | 5918 ft | 222 kts | 45° |
| 2026-04-25 18:43 | 55.43675 | 12.73423 | 5655 ft | 221 kts | 45° |
| 2026-04-25 18:43 | 55.44607 | 12.75542 | 5380 ft | 216 kts | 39° |
| 2026-04-25 18:43 | 55.45657 | 12.77398 | 5134 ft | 214 kts | 35° |
| 2026-04-25 18:44 | 55.46723 | 12.79210 | 4905 ft | 212 kts | 35° |
| 2026-04-25 18:44 | 55.47766 | 12.80981 | 4684 ft | 201 kts | 35° |
| 2026-04-25 18:44 | 55.48789 | 12.82713 | 4470 ft | 209 kts | 35° |
| 2026-04-25 18:44 | 55.49856 | 12.84503 | 4195 ft | 209 kts | 35° |
| 2026-04-25 18:45 | 55.50931 | 12.86301 | 3616 ft | 213 kts | 35° |
| 2026-04-25 18:45 | 55.52069 | 12.87833 | 3024 ft | 199 kts | 15° |
| 2026-04-25 18:45 | 55.53398 | 12.88071 | 2455 ft | 190 kts | 349° |
| 2026-04-25 18:45 | 55.54529 | 12.87047 | 2034 ft | 183 kts | 312° |
| 2026-04-25 18:46 | 55.54853 | 12.84952 | 1988 ft | 173 kts | 285° |
| 2026-04-25 18:46 | 55.55320 | 12.83145 | 1990 ft | 158 kts | 308° |
| 2026-04-25 18:46 | 55.55891 | 12.81539 | 1985 ft | 154 kts | 307° |
| 2026-04-25 18:46 | 55.56476 | 12.79931 | 1805 ft | 155 kts | 308° |
| 2026-04-25 18:47 | 55.57059 | 12.78353 | 1593 ft | 152 kts | 308° |
| 2026-04-25 18:47 | 55.57592 | 12.76902 | 1398 ft | 131 kts | 309° |
| 2026-04-25 18:47 | 55.58063 | 12.75637 | 1215 ft | 115 kts | 308° |
| 2026-04-25 18:47 | 55.58510 | 12.74434 | 1056 ft | 117 kts | 309° |
| 2026-04-25 18:48 | 55.58947 | 12.73257 | 894 ft | 113 kts | 307° |
| 2026-04-25 18:48 | 55.59342 | 12.72176 | 729 ft | 92 kts | 306° |
| 2026-04-25 18:48 | 55.59664 | 12.71266 | 644 ft | 81 kts | 309° |
| 2026-04-25 18:48 | 55.59995 | 12.70429 | 515 ft | 81 kts | 306° |
| 2026-04-25 18:49 | 55.60309 | 12.69583 | 417 ft | 83 kts | 304° |
| 2026-04-25 18:49 | 55.60616 | 12.68769 | 327 ft | 77 kts | 304° |
| 2026-04-25 18:49 | 55.60916 | 12.67948 | 253 ft | 82 kts | 304° |
| 2026-04-25 18:49 | 55.61246 | 12.67074 | 120 ft | 86 kts | 304° |
| 2026-04-25 18:50 | 55.61459 | 12.66500 | 47 ft | 83 kts | 305° |
| 2026-04-25 18:50 | 55.61844 | 12.65465 | 20 ft | 64 kts | 302° |
| 2026-04-25 18:50 | 55.62046 | 12.64922 | 21 ft | 40 kts | 302° |
| 2026-04-25 18:50 | 55.62178 | 12.64568 | 20 ft | 30 kts | 300° |
| 2026-04-25 18:51 | 55.62295 | 12.64427 | 19 ft | 9 kts | 355° |
| 2026-04-25 18:51 | 55.62353 | 12.64429 | 20 ft | 14 kts | 18° |
| 2026-04-25 18:51 | 55.62467 | 12.64346 | 20 ft | 19 kts | 308° |
| 2026-04-25 18:51 | 55.62544 | 12.64156 | 20 ft | 22 kts | 301° |
| 2026-04-25 18:52 | 55.62618 | 12.63960 | 20 ft | 14 kts | 301° |
| 2026-04-25 18:52 | 55.62666 | 12.63786 | 20 ft | 17 kts | 284° |
| 2026-04-25 18:52 | 55.62678 | 12.63537 | 20 ft | 10 kts | 273° |
| 2026-04-25 18:52 | 55.62714 | 12.63369 | 19 ft | 16 kts | 301° |
| 2026-04-25 18:53 | 55.62766 | 12.63307 | 19 ft | 8 kts | 7° |
| 2026-04-25 18:53 | 55.62824 | 12.63300 | 20 ft | 6 kts | 357° |
| 2026-04-25 18:53 | 55.62842 | 12.63297 | 20 ft | 0 kts | 352° |
| 2026-04-25 18:53 | 55.62843 | 12.63297 | 20 ft | 0 kts | 352° |